F/V Lagardere II — FING — position and weather

sailwx.info

Track history (hours):
 
Tides and Currents Weather Stations Pressure Air Temp Water Temp Dewpoint Dewpoint Depression Visibility Wind Speed Wind Dir Waves Ship Positions

F/V Lagardere II

Last reported at 2018-Jan-12 12:42 UTC. Time now 2018-Jan-20 03:39 UTC.
Position N 44°53' W 001°29'.

; draft 3.7 m.

Type: Fishing. MMSI: 228110800.

Date/timePositionNaut miles runAvg speedWind from/ knotsBaromVisibWave heightAir tempDewpointWater temp
2018-Jan-12 12:42N 44°53' W 001°29'1 3.4
2018-Jan-12 12:30N 44°53' W 001°29'2 3.5
2018-Jan-12 12:00N 44°51' W 001°29'1 2.6
2018-Jan-12 11:31N 44°50' W 001°29'2 3.3
2018-Jan-12 10:58N 44°51' W 001°29'2 3.3
2018-Jan-12 10:30N 44°53' W 001°30'2 3.1
2018-Jan-12 10:00N 44°54' W 001°31'1 1.2
2018-Jan-12 09:17N 44°54' W 001°30'1 3.3
2018-Jan-12 09:00N 44°53' W 001°30'2 3.6
2018-Jan-12 08:30N 44°51' W 001°29'2 3.1
2018-Jan-12 08:00N 44°50' W 001°29'1 2.6
2018-Jan-12 07:30N 44°49' W 001°29'2 3.4
2018-Jan-12 07:00N 44°47' W 001°28'2 3.3
2018-Jan-12 06:30N 44°45' W 001°28'2 3.4
2018-Jan-12 06:00N 44°44' W 001°28'2 3.3
2018-Jan-12 05:30N 44°42' W 001°28'2 3.3
2018-Jan-12 05:00N 44°40' W 001°28'2 3.3
2018-Jan-12 04:30N 44°39' W 001°28'2 3.3
2018-Jan-12 04:00N 44°37' W 001°27'2 3.5
2018-Jan-12 03:30N 44°35' W 001°26'2 3.5
2018-Jan-12 03:01N 44°34' W 001°25'2 3.0
2018-Jan-12 02:30N 44°32' W 001°25'2 3.3
2018-Jan-12 02:00N 44°31' W 001°25'2 3.3
2018-Jan-12 01:31N 44°29' W 001°25'4 3.3
2018-Jan-12 00:17N 44°25' W 001°26'1 3.2
2018-Jan-12 00:00N 44°24' W 001°26'2 3.2
2018-Jan-11 23:29N 44°22' W 001°26'49 7.9
2018-Jan-11 17:18N 43°36' W 001°48'6 8.7
2018-Jan-11 16:37N 43°31' W 001°51'3 8.5
2018-Jan-11 16:15N 43°28' W 001°52'3 8.5
2018-Jan-11 15:51N 43°25' W 001°54'3 8.6
2018-Jan-11 15:28N 43°22' W 001°55'2 4.0
2018-Jan-11 14:56N 43°19' W 001°55'0 0.0
2018-Jan-11 13:35N 43°19' W 001°55'0 0.1
2018-Jan-11 13:29N 43°20' W 001°55'0 0.0
2018-Jan-11 12:54N 43°20' W 001°55'0 0.0
2018-Jan-11 12:27N 43°20' W 001°55'0 0.0
2018-Jan-11 12:00N 43°20' W 001°55'0 0.0
2018-Jan-11 11:24N 43°19' W 001°55'0 0.0
2018-Jan-11 10:43N 43°19' W 001°55'0 0.0
2018-Jan-11 10:22N 43°19' W 001°55'0 0.0
2018-Jan-11 09:53N 43°19' W 001°55'0 0.0
2018-Jan-11 08:52N 43°19' W 001°55'0 0.0
2018-Jan-11 08:26N 43°19' W 001°55'0 0.0
2018-Jan-11 07:57N 43°20' W 001°55'0 0.0
2018-Jan-11 07:29N 43°19' W 001°55'0 0.0
2018-Jan-11 06:54N 43°19' W 001°55'0 0.0
2018-Jan-11 06:21N 43°20' W 001°55'0 0.0
2018-Jan-11 05:54N 43°20' W 001°55'0 0.0
2018-Jan-11 05:28N 43°19' W 001°55'0 0.0
2018-Jan-11 04:59N 43°19' W 001°55'0 0.0
2018-Jan-11 04:30N 43°20' W 001°55'0 0.0
2018-Jan-11 03:59N 43°20' W 001°55'0 0.0
2018-Jan-11 03:26N 43°19' W 001°55'0 0.0
2018-Jan-11 03:00N 43°19' W 001°55'0 0.0
2018-Jan-11 02:30N 43°19' W 001°55'0 0.0
2018-Jan-11 01:59N 43°19' W 001°55'0 0.0
2018-Jan-11 01:26N 43°19' W 001°55'0 0.0
2018-Jan-11 00:58N 43°19' W 001°55'0 0.0
2018-Jan-11 00:21N 43°20' W 001°55'0 0.0
2018-Jan-10 23:59N 43°19' W 001°55'0 0.0
2018-Jan-10 22:29N 43°20' W 001°55'0 0.0
2018-Jan-10 21:01N 43°20' W 001°55'1 0.3
2018-Jan-10 18:15N 43°20' W 001°56'2 8.9
2018-Jan-10 18:00N 43°22' W 001°55'5 8.9
2018-Jan-10 17:30N 43°27' W 001°53'4 8.8
2018-Jan-10 17:01N 43°31' W 001°52'4 8.7
2018-Jan-10 16:30N 43°35' W 001°50'4 8.5
2018-Jan-10 16:00N 43°39' W 001°49'4 8.6
2018-Jan-10 15:29N 43°43' W 001°47'48 3.9
2018-Jan-10 03:10N 44°28' W 001°26'1 3.2
2018-Jan-10 03:00N 44°29' W 001°26'1 2.4
2018-Jan-10 02:26N 44°30' W 001°27'1 3.1
2018-Jan-10 02:00N 44°32' W 001°26'2 3.1
2018-Jan-10 01:27N 44°33' W 001°26'1 3.1
2018-Jan-10 01:00N 44°35' W 001°26'2 3.4
2018-Jan-10 00:30N 44°36' W 001°26'2 3.3
2018-Jan-10 00:00N 44°38' W 001°28'2 3.4
2018-Jan-09 23:30N 44°39' W 001°28'2 3.2
2018-Jan-09 23:00N 44°41' W 001°28'2 4.7
2018-Jan-09 22:30N 44°43' W 001°26'1 2.0
2018-Jan-09 22:00N 44°44' W 001°26'1 1.9
2018-Jan-09 21:30N 44°45' W 001°26'2 3.1
2018-Jan-09 21:00N 44°46' W 001°28'2 3.1
2018-Jan-09 20:30N 44°47' W 001°28'2 3.1
2018-Jan-09 20:00N 44°49' W 001°29'2 3.1
2018-Jan-09 19:30N 44°50' W 001°29'3 3.2
2018-Jan-09 18:37N 44°53' W 001°31'0 3.2
2018-Jan-09 18:28N 44°53' W 001°31'1 0.2
2018-Jan-09 14:55N 44°54' W 001°31'3 3.5
2018-Jan-09 14:08N 44°52' W 001°30'0 3.5
2018-Jan-09 14:00N 44°51' W 001°29'2 3.4
2018-Jan-09 13:30N 44°50' W 001°29'2 3.4
2018-Jan-09 13:00N 44°48' W 001°28'2 3.4
2018-Jan-09 12:30N 44°46' W 001°28'1 3.0
2018-Jan-09 12:00N 44°45' W 001°27'2 3.3
2018-Jan-09 11:30N 44°43' W 001°26'1 2.4
2018-Jan-09 11:00N 44°44' W 001°26'2 3.1
2018-Jan-09 10:30N 44°46' W 001°27'2 3.1
2018-Jan-09 10:00N 44°47' W 001°28'2 3.2
2018-Jan-09 09:30N 44°49' W 001°29'2 3.2
2018-Jan-09 09:00N 44°50' W 001°29'2 3.3
2018-Jan-09 08:30N 44°52' W 001°29'1 1.1
2018-Jan-09 07:44N 44°53' W 001°29'1 3.4
2018-Jan-09 07:30N 44°52' W 001°29'2 3.4
2018-Jan-09 07:00N 44°50' W 001°29'2 3.2
2018-Jan-09 06:30N 44°49' W 001°29'2 3.2
2018-Jan-09 06:00N 44°47' W 001°28'2 3.2
2018-Jan-09 05:30N 44°46' W 001°28'2 3.4
2018-Jan-09 05:00N 44°44' W 001°27'1 1.4
2018-Jan-09 04:30N 44°45' W 001°26'2 3.2
2018-Jan-09 04:00N 44°46' W 001°27'2 3.1
2018-Jan-09 03:30N 44°47' W 001°28'2 3.2
2018-Jan-09 03:00N 44°49' W 001°28'1 2.4
2018-Jan-09 02:30N 44°50' W 001°29'2 3.2
2018-Jan-09 02:00N 44°52' W 001°29'2 3.2
2018-Jan-09 01:30N 44°53' W 001°29'2 2.3
2018-Jan-09 00:40N 44°55' W 001°31'1 3.2
2018-Jan-09 00:26N 44°54' W 001°31'2 3.6
2018-Jan-08 23:52N 44°52' W 001°31'1 3.6
2018-Jan-08 23:30N 44°51' W 001°31'2 3.5
2018-Jan-08 22:58N 44°49' W 001°31'2 3.3
2018-Jan-08 22:27N 44°48' W 001°29'2 3.4
2018-Jan-08 21:59N 44°46' W 001°28'1 1.6
2018-Jan-08 21:30N 44°46' W 001°27'2 3.3
2018-Jan-08 21:00N 44°47' W 001°28'2 3.3
2018-Jan-08 20:30N 44°49' W 001°29'2 3.3
2018-Jan-08 20:01N 44°50' W 001°29'2 3.4
2018-Jan-08 19:26N 44°52' W 001°30'1 3.4
2018-Jan-08 19:00N 44°54' W 001°31'1 1.1
2018-Jan-08 17:45N 44°53' W 001°29'1 3.6
2018-Jan-08 17:30N 44°52' W 001°29'2 3.5
2018-Jan-08 17:01N 44°50' W 001°29'2 3.5
2018-Jan-08 16:30N 44°49' W 001°28'0 0.5
2018-Jan-08 16:00N 44°49' W 001°29'2 3.1
2018-Jan-08 15:30N 44°50' W 001°29'2 3.2
2018-Jan-08 14:48N 44°52' W 001°30'1 3.2
2018-Jan-08 14:28N 44°53' W 001°31'1 0.8
2018-Jan-08 13:15N 44°53' W 001°29'1 3.5
2018-Jan-08 13:00N 44°52' W 001°29'2 3.6
2018-Jan-08 12:30N 44°50' W 001°29'1 2.4
2018-Jan-08 12:00N 44°49' W 001°29'2 3.4
2018-Jan-08 11:30N 44°48' W 001°28'2 3.3
2018-Jan-08 11:00N 44°46' W 001°28'2 3.3
2018-Jan-08 10:30N 44°44' W 001°28'2 3.0
2018-Jan-08 10:00N 44°43' W 001°26'1 2.8
2018-Jan-08 09:30N 44°45' W 001°26'2 3.3
2018-Jan-08 09:00N 44°46' W 001°27'2 3.4
2018-Jan-08 08:30N 44°47' W 001°28'2 3.4
2018-Jan-08 08:00N 44°48' W 001°31'1 1.1
2018-Jan-08 07:30N 44°49' W 001°31'1 2.6
2018-Jan-08 07:00N 44°50' W 001°31'1 2.3
2018-Jan-08 06:26N 44°51' W 001°29'1 3.3
2018-Jan-08 06:00N 44°50' W 001°29'2 3.2
2018-Jan-08 05:30N 44°48' W 001°28'2 3.2
2018-Jan-08 05:00N 44°46' W 001°28'2 3.3
2018-Jan-08 04:30N 44°45' W 001°26'2 3.3
2018-Jan-08 04:00N 44°43' W 001°26'1 2.3
2018-Jan-08 03:30N 44°43' W 001°27'2 3.5
2018-Jan-08 03:00N 44°44' W 001°28'1 2.8
2018-Jan-08 02:30N 44°46' W 001°28'2 3.1
2018-Jan-08 02:00N 44°47' W 001°28'2 3.1
2018-Jan-08 01:31N 44°49' W 001°29'2 3.1
2018-Jan-08 01:00N 44°50' W 001°29'4 3.2
2018-Jan-07 23:53N 44°54' W 001°31'1 1.5
2018-Jan-07 23:06N 44°54' W 001°29'0 3.4
2018-Jan-07 22:57N 44°54' W 001°29'2 3.4
2018-Jan-07 22:30N 44°52' W 001°29'1 2.6
2018-Jan-07 22:00N 44°51' W 001°29'1 2.4
2018-Jan-07 21:30N 44°50' W 001°29'2 3.1
2018-Jan-07 21:00N 44°48' W 001°29'2 3.3
2018-Jan-07 20:30N 44°47' W 001°28'2 3.4
2018-Jan-07 20:00N 44°45' W 001°27'2 3.4
2018-Jan-07 19:30N 44°44' W 001°26'2 3.3
2018-Jan-07 19:00N 44°42' W 001°25'2 3.4
2018-Jan-07 18:30N 44°40' W 001°25'2 3.4
2018-Jan-07 18:00N 44°39' W 001°25'2 3.3
2018-Jan-07 17:30N 44°37' W 001°25'2 3.1
2018-Jan-07 17:00N 44°36' W 001°24'2 3.4
2018-Jan-07 16:30N 44°34' W 001°24'1 2.9
2018-Jan-07 16:00N 44°32' W 001°24'2 3.2
2018-Jan-07 15:30N 44°31' W 001°24'2 3.2
2018-Jan-07 15:00N 44°29' W 001°24'2 3.2
2018-Jan-07 14:30N 44°27' W 001°24'2 3.1
2018-Jan-07 14:00N 44°26' W 001°24'2 3.1
2018-Jan-07 13:30N 44°24' W 001°25'2 3.1
2018-Jan-07 12:58N 44°23' W 001°25'6 1.8
2018-Jan-07 09:25N 44°29' W 001°24'1 2.4
2018-Jan-07 09:00N 44°29' W 001°25'2 3.3
2018-Jan-07 08:30N 44°28' W 001°26'3 3.2
2018-Jan-07 07:31N 44°25' W 001°26'0 3.6
2018-Jan-07 07:30N 44°25' W 001°26'4 0.9
2018-Jan-07 03:19N 44°28' W 001°25'1 2.5
2018-Jan-07 03:00N 44°29' W 001°26'2 2.5
2018-Jan-07 02:09N 44°31' W 001°25'1 3.2
2018-Jan-07 01:59N 44°32' W 001°25'1 3.1
2018-Jan-07 01:30N 44°33' W 001°25'3 3.1
2018-Jan-07 00:30N 44°36' W 001°26'2 3.2
2018-Jan-07 00:00N 44°38' W 001°27'2 3.3
2018-Jan-06 23:30N 44°39' W 001°28'2 3.2
2018-Jan-06 23:00N 44°41' W 001°29'2 3.2
2018-Jan-06 22:30N 44°42' W 001°29'2 3.3
2018-Jan-06 22:00N 44°44' W 001°29'2 3.1
2018-Jan-06 21:30N 44°45' W 001°28'1 3.0
2018-Jan-06 21:01N 44°47' W 001°28'2 3.4
2018-Jan-06 20:30N 44°49' W 001°28'2 3.6
2018-Jan-06 20:00N 44°50' W 001°28'2 3.6
2018-Jan-06 19:28N 44°52' W 001°27'2 0.1
2018-Jan-06 04:57N 44°54' W 001°27'2 3.3
2018-Jan-06 04:28N 44°52' W 001°27'1 3.3
2018-Jan-06 04:00N 44°51' W 001°28'2 3.3
2018-Jan-06 03:30N 44°49' W 001°28'2 3.4
2018-Jan-06 03:00N 44°48' W 001°28'1 2.6
2018-Jan-06 02:30N 44°46' W 001°29'2 3.1
2018-Jan-06 02:00N 44°45' W 001°28'2 3.3
2018-Jan-06 01:30N 44°43' W 001°28'2 3.2
2018-Jan-06 01:00N 44°41' W 001°28'2 3.2
2018-Jan-06 00:30N 44°40' W 001°28'2 3.3
2018-Jan-06 00:00N 44°38' W 001°28'2 3.2
2018-Jan-05 23:30N 44°37' W 001°27'2 3.3
2018-Jan-05 23:00N 44°35' W 001°26'2 3.4
2018-Jan-05 22:30N 44°34' W 001°25'2 3.3
2018-Jan-05 22:00N 44°32' W 001°25'2 3.3
2018-Jan-05 21:30N 44°30' W 001°25'1 2.5
2018-Jan-05 21:00N 44°29' W 001°25'2 3.4
2018-Jan-05 20:28N 44°27' W 001°25'2 3.5
2018-Jan-05 19:53N 44°25' W 001°26'2 3.3
2018-Jan-05 19:12N 44°23' W 001°26'1 3.2
2018-Jan-05 19:00N 44°22' W 001°26'47 6.2
2018-Jan-05 11:24N 43°38' W 001°49'2 4.6
2018-Jan-05 11:00N 43°37' W 001°50'6 7.6
2018-Jan-05 10:12N 43°31' W 001°53'2 8.2
2018-Jan-05 10:01N 43°29' W 001°53'4 8.3
2018-Jan-05 09:30N 43°25' W 001°54'4 8.5
2018-Jan-05 09:00N 43°21' W 001°55'  
Track history (hours):
 
Tides and Currents Weather Stations Pressure Air Temp Water Temp Dewpoint Dewpoint Depression Visibility Wind Speed Wind Dir Waves Ship Positions

F/V Lagardere II

Last reported at 2018-Jan-12 12:42 UTC. Time now 2018-Jan-20 03:39 UTC.
Position N 44°53' W 001°29'.

; draft 3.7 m.

Type: Fishing. MMSI: 228110800.

Date/timePositionNaut miles runAvg speedWind from/ knotsBaromVisibWave heightAir tempDewpointWater temp
2018-Jan-12 12:42N 44°53' W 001°29'1 3.4
2018-Jan-12 12:30N 44°53' W 001°29'2 3.5
2018-Jan-12 12:00N 44°51' W 001°29'1 2.6
2018-Jan-12 11:31N 44°50' W 001°29'2 3.3
2018-Jan-12 10:58N 44°51' W 001°29'2 3.3
2018-Jan-12 10:30N 44°53' W 001°30'2 3.1
2018-Jan-12 10:00N 44°54' W 001°31'1 1.2
2018-Jan-12 09:17N 44°54' W 001°30'1 3.3
2018-Jan-12 09:00N 44°53' W 001°30'2 3.6
2018-Jan-12 08:30N 44°51' W 001°29'2 3.1
2018-Jan-12 08:00N 44°50' W 001°29'1 2.6
2018-Jan-12 07:30N 44°49' W 001°29'2 3.4
2018-Jan-12 07:00N 44°47' W 001°28'2 3.3
2018-Jan-12 06:30N 44°45' W 001°28'2 3.4
2018-Jan-12 06:00N 44°44' W 001°28'2 3.3
2018-Jan-12 05:30N 44°42' W 001°28'2 3.3
2018-Jan-12 05:00N 44°40' W 001°28'2 3.3
2018-Jan-12 04:30N 44°39' W 001°28'2 3.3
2018-Jan-12 04:00N 44°37' W 001°27'2 3.5
2018-Jan-12 03:30N 44°35' W 001°26'2 3.5
2018-Jan-12 03:01N 44°34' W 001°25'2 3.0
2018-Jan-12 02:30N 44°32' W 001°25'2 3.3
2018-Jan-12 02:00N 44°31' W 001°25'2 3.3
2018-Jan-12 01:31N 44°29' W 001°25'4 3.3
2018-Jan-12 00:17N 44°25' W 001°26'1 3.2
2018-Jan-12 00:00N 44°24' W 001°26'2 3.2
2018-Jan-11 23:29N 44°22' W 001°26'49 7.9
2018-Jan-11 17:18N 43°36' W 001°48'6 8.7
2018-Jan-11 16:37N 43°31' W 001°51'3 8.5
2018-Jan-11 16:15N 43°28' W 001°52'3 8.5
2018-Jan-11 15:51N 43°25' W 001°54'3 8.6
2018-Jan-11 15:28N 43°22' W 001°55'2 4.0
2018-Jan-11 14:56N 43°19' W 001°55'0 0.0
2018-Jan-11 13:35N 43°19' W 001°55'0 0.1
2018-Jan-11 13:29N 43°20' W 001°55'0 0.0
2018-Jan-11 12:54N 43°20' W 001°55'0 0.0
2018-Jan-11 12:27N 43°20' W 001°55'0 0.0
2018-Jan-11 12:00N 43°20' W 001°55'0 0.0
2018-Jan-11 11:24N 43°19' W 001°55'0 0.0
2018-Jan-11 10:43N 43°19' W 001°55'0 0.0
2018-Jan-11 10:22N 43°19' W 001°55'0 0.0
2018-Jan-11 09:53N 43°19' W 001°55'0 0.0
2018-Jan-11 08:52N 43°19' W 001°55'0 0.0
2018-Jan-11 08:26N 43°19' W 001°55'0 0.0
2018-Jan-11 07:57N 43°20' W 001°55'0 0.0
2018-Jan-11 07:29N 43°19' W 001°55'0 0.0
2018-Jan-11 06:54N 43°19' W 001°55'0 0.0
2018-Jan-11 06:21N 43°20' W 001°55'0 0.0
2018-Jan-11 05:54N 43°20' W 001°55'0 0.0
2018-Jan-11 05:28N 43°19' W 001°55'0 0.0
2018-Jan-11 04:59N 43°19' W 001°55'0 0.0
2018-Jan-11 04:30N 43°20' W 001°55'0 0.0
2018-Jan-11 03:59N 43°20' W 001°55'0 0.0
2018-Jan-11 03:26N 43°19' W 001°55'0 0.0
2018-Jan-11 03:00N 43°19' W 001°55'0 0.0
2018-Jan-11 02:30N 43°19' W 001°55'0 0.0
2018-Jan-11 01:59N 43°19' W 001°55'0 0.0
2018-Jan-11 01:26N 43°19' W 001°55'0 0.0
2018-Jan-11 00:58N 43°19' W 001°55'0 0.0
2018-Jan-11 00:21N 43°20' W 001°55'0 0.0
2018-Jan-10 23:59N 43°19' W 001°55'0 0.0
2018-Jan-10 22:29N 43°20' W 001°55'0 0.0
2018-Jan-10 21:01N 43°20' W 001°55'1 0.3
2018-Jan-10 18:15N 43°20' W 001°56'2 8.9
2018-Jan-10 18:00N 43°22' W 001°55'5 8.9
2018-Jan-10 17:30N 43°27' W 001°53'4 8.8
2018-Jan-10 17:01N 43°31' W 001°52'4 8.7
2018-Jan-10 16:30N 43°35' W 001°50'4 8.5
2018-Jan-10 16:00N 43°39' W 001°49'4 8.6
2018-Jan-10 15:29N 43°43' W 001°47'48 3.9
2018-Jan-10 03:10N 44°28' W 001°26'1 3.2
2018-Jan-10 03:00N 44°29' W 001°26'1 2.4
2018-Jan-10 02:26N 44°30' W 001°27'1 3.1
2018-Jan-10 02:00N 44°32' W 001°26'2 3.1
2018-Jan-10 01:27N 44°33' W 001°26'1 3.1
2018-Jan-10 01:00N 44°35' W 001°26'2 3.4
2018-Jan-10 00:30N 44°36' W 001°26'2 3.3
2018-Jan-10 00:00N 44°38' W 001°28'2 3.4
2018-Jan-09 23:30N 44°39' W 001°28'2 3.2
2018-Jan-09 23:00N 44°41' W 001°28'2 4.7
2018-Jan-09 22:30N 44°43' W 001°26'1 2.0
2018-Jan-09 22:00N 44°44' W 001°26'1 1.9
2018-Jan-09 21:30N 44°45' W 001°26'2 3.1
2018-Jan-09 21:00N 44°46' W 001°28'2 3.1
2018-Jan-09 20:30N 44°47' W 001°28'2 3.1
2018-Jan-09 20:00N 44°49' W 001°29'2 3.1
2018-Jan-09 19:30N 44°50' W 001°29'3 3.2
2018-Jan-09 18:37N 44°53' W 001°31'0 3.2
2018-Jan-09 18:28N 44°53' W 001°31'1 0.2
2018-Jan-09 14:55N 44°54' W 001°31'3 3.5
2018-Jan-09 14:08N 44°52' W 001°30'0 3.5
2018-Jan-09 14:00N 44°51' W 001°29'2 3.4
2018-Jan-09 13:30N 44°50' W 001°29'2 3.4
2018-Jan-09 13:00N 44°48' W 001°28'2 3.4
2018-Jan-09 12:30N 44°46' W 001°28'1 3.0
2018-Jan-09 12:00N 44°45' W 001°27'2 3.3
2018-Jan-09 11:30N 44°43' W 001°26'1 2.4
2018-Jan-09 11:00N 44°44' W 001°26'2 3.1
2018-Jan-09 10:30N 44°46' W 001°27'2 3.1
2018-Jan-09 10:00N 44°47' W 001°28'2 3.2
2018-Jan-09 09:30N 44°49' W 001°29'2 3.2
2018-Jan-09 09:00N 44°50' W 001°29'2 3.3
2018-Jan-09 08:30N 44°52' W 001°29'1 1.1
2018-Jan-09 07:44N 44°53' W 001°29'1 3.4
2018-Jan-09 07:30N 44°52' W 001°29'2 3.4
2018-Jan-09 07:00N 44°50' W 001°29'2 3.2
2018-Jan-09 06:30N 44°49' W 001°29'2 3.2
2018-Jan-09 06:00N 44°47' W 001°28'2 3.2
2018-Jan-09 05:30N 44°46' W 001°28'2 3.4
2018-Jan-09 05:00N 44°44' W 001°27'1 1.4
2018-Jan-09 04:30N 44°45' W 001°26'2 3.2
2018-Jan-09 04:00N 44°46' W 001°27'2 3.1
2018-Jan-09 03:30N 44°47' W 001°28'2 3.2
2018-Jan-09 03:00N 44°49' W 001°28'1 2.4
2018-Jan-09 02:30N 44°50' W 001°29'2 3.2
2018-Jan-09 02:00N 44°52' W 001°29'2 3.2
2018-Jan-09 01:30N 44°53' W 001°29'2 2.3
2018-Jan-09 00:40N 44°55' W 001°31'1 3.2
2018-Jan-09 00:26N 44°54' W 001°31'2 3.6
2018-Jan-08 23:52N 44°52' W 001°31'1 3.6
2018-Jan-08 23:30N 44°51' W 001°31'2 3.5
2018-Jan-08 22:58N 44°49' W 001°31'2 3.3
2018-Jan-08 22:27N 44°48' W 001°29'2 3.4
2018-Jan-08 21:59N 44°46' W 001°28'1 1.6
2018-Jan-08 21:30N 44°46' W 001°27'2 3.3
2018-Jan-08 21:00N 44°47' W 001°28'2 3.3
2018-Jan-08 20:30N 44°49' W 001°29'2 3.3
2018-Jan-08 20:01N 44°50' W 001°29'2 3.4
2018-Jan-08 19:26N 44°52' W 001°30'1 3.4
2018-Jan-08 19:00N 44°54' W 001°31'1 1.1
2018-Jan-08 17:45N 44°53' W 001°29'1 3.6
2018-Jan-08 17:30N 44°52' W 001°29'2 3.5
2018-Jan-08 17:01N 44°50' W 001°29'2 3.5
2018-Jan-08 16:30N 44°49' W 001°28'0 0.5
2018-Jan-08 16:00N 44°49' W 001°29'2 3.1
2018-Jan-08 15:30N 44°50' W 001°29'2 3.2
2018-Jan-08 14:48N 44°52' W 001°30'1 3.2
2018-Jan-08 14:28N 44°53' W 001°31'1 0.8
2018-Jan-08 13:15N 44°53' W 001°29'1 3.5
2018-Jan-08 13:00N 44°52' W 001°29'2 3.6
2018-Jan-08 12:30N 44°50' W 001°29'1 2.4
2018-Jan-08 12:00N 44°49' W 001°29'2 3.4
2018-Jan-08 11:30N 44°48' W 001°28'2 3.3
2018-Jan-08 11:00N 44°46' W 001°28'2 3.3
2018-Jan-08 10:30N 44°44' W 001°28'2 3.0
2018-Jan-08 10:00N 44°43' W 001°26'1 2.8
2018-Jan-08 09:30N 44°45' W 001°26'2 3.3
2018-Jan-08 09:00N 44°46' W 001°27'2 3.4
2018-Jan-08 08:30N 44°47' W 001°28'2 3.4
2018-Jan-08 08:00N 44°48' W 001°31'1 1.1
2018-Jan-08 07:30N 44°49' W 001°31'1 2.6
2018-Jan-08 07:00N 44°50' W 001°31'1 2.3
2018-Jan-08 06:26N 44°51' W 001°29'1 3.3
2018-Jan-08 06:00N 44°50' W 001°29'2 3.2
2018-Jan-08 05:30N 44°48' W 001°28'2 3.2
2018-Jan-08 05:00N 44°46' W 001°28'2 3.3
2018-Jan-08 04:30N 44°45' W 001°26'2 3.3
2018-Jan-08 04:00N 44°43' W 001°26'1 2.3
2018-Jan-08 03:30N 44°43' W 001°27'2 3.5
2018-Jan-08 03:00N 44°44' W 001°28'1 2.8
2018-Jan-08 02:30N 44°46' W 001°28'2 3.1
2018-Jan-08 02:00N 44°47' W 001°28'2 3.1
2018-Jan-08 01:31N 44°49' W 001°29'2 3.1
2018-Jan-08 01:00N 44°50' W 001°29'4 3.2
2018-Jan-07 23:53N 44°54' W 001°31'1 1.5
2018-Jan-07 23:06N 44°54' W 001°29'0 3.4
2018-Jan-07 22:57N 44°54' W 001°29'2 3.4
2018-Jan-07 22:30N 44°52' W 001°29'1 2.6
2018-Jan-07 22:00N 44°51' W 001°29'1 2.4
2018-Jan-07 21:30N 44°50' W 001°29'2 3.1
2018-Jan-07 21:00N 44°48' W 001°29'2 3.3
2018-Jan-07 20:30N 44°47' W 001°28'2 3.4
2018-Jan-07 20:00N 44°45' W 001°27'2 3.4
2018-Jan-07 19:30N 44°44' W 001°26'2 3.3
2018-Jan-07 19:00N 44°42' W 001°25'2 3.4
2018-Jan-07 18:30N 44°40' W 001°25'2 3.4
2018-Jan-07 18:00N 44°39' W 001°25'2 3.3
2018-Jan-07 17:30N 44°37' W 001°25'2 3.1
2018-Jan-07 17:00N 44°36' W 001°24'2 3.4
2018-Jan-07 16:30N 44°34' W 001°24'1 2.9
2018-Jan-07 16:00N 44°32' W 001°24'2 3.2
2018-Jan-07 15:30N 44°31' W 001°24'2 3.2
2018-Jan-07 15:00N 44°29' W 001°24'2 3.2
2018-Jan-07 14:30N 44°27' W 001°24'2 3.1
2018-Jan-07 14:00N 44°26' W 001°24'2 3.1
2018-Jan-07 13:30N 44°24' W 001°25'2 3.1
2018-Jan-07 12:58N 44°23' W 001°25'6 1.8
2018-Jan-07 09:25N 44°29' W 001°24'1 2.4
2018-Jan-07 09:00N 44°29' W 001°25'2 3.3
2018-Jan-07 08:30N 44°28' W 001°26'3 3.2
2018-Jan-07 07:31N 44°25' W 001°26'0 3.6
2018-Jan-07 07:30N 44°25' W 001°26'4 0.9
2018-Jan-07 03:19N 44°28' W 001°25'1 2.5
2018-Jan-07 03:00N 44°29' W 001°26'2 2.5
2018-Jan-07 02:09N 44°31' W 001°25'1 3.2
2018-Jan-07 01:59N 44°32' W 001°25'1 3.1
2018-Jan-07 01:30N 44°33' W 001°25'3 3.1
2018-Jan-07 00:30N 44°36' W 001°26'2 3.2
2018-Jan-07 00:00N 44°38' W 001°27'2 3.3
2018-Jan-06 23:30N 44°39' W 001°28'2 3.2
2018-Jan-06 23:00N 44°41' W 001°29'2 3.2
2018-Jan-06 22:30N 44°42' W 001°29'2 3.3
2018-Jan-06 22:00N 44°44' W 001°29'2 3.1
2018-Jan-06 21:30N 44°45' W 001°28'1 3.0
2018-Jan-06 21:01N 44°47' W 001°28'2 3.4
2018-Jan-06 20:30N 44°49' W 001°28'2 3.6
2018-Jan-06 20:00N 44°50' W 001°28'2 3.6
2018-Jan-06 19:28N 44°52' W 001°27'2 0.1
2018-Jan-06 04:57N 44°54' W 001°27'2 3.3
2018-Jan-06 04:28N 44°52' W 001°27'1 3.3
2018-Jan-06 04:00N 44°51' W 001°28'2 3.3
2018-Jan-06 03:30N 44°49' W 001°28'2 3.4
2018-Jan-06 03:00N 44°48' W 001°28'1 2.6
2018-Jan-06 02:30N 44°46' W 001°29'2 3.1
2018-Jan-06 02:00N 44°45' W 001°28'2 3.3
2018-Jan-06 01:30N 44°43' W 001°28'2 3.2
2018-Jan-06 01:00N 44°41' W 001°28'2 3.2
2018-Jan-06 00:30N 44°40' W 001°28'2 3.3
2018-Jan-06 00:00N 44°38' W 001°28'2 3.2
2018-Jan-05 23:30N 44°37' W 001°27'2 3.3
2018-Jan-05 23:00N 44°35' W 001°26'2 3.4
2018-Jan-05 22:30N 44°34' W 001°25'2 3.3
2018-Jan-05 22:00N 44°32' W 001°25'2 3.3
2018-Jan-05 21:30N 44°30' W 001°25'1 2.5
2018-Jan-05 21:00N 44°29' W 001°25'2 3.4
2018-Jan-05 20:28N 44°27' W 001°25'2 3.5
2018-Jan-05 19:53N 44°25' W 001°26'2 3.3
2018-Jan-05 19:12N 44°23' W 001°26'1 3.2
2018-Jan-05 19:00N 44°22' W 001°26'47 6.2
2018-Jan-05 11:24N 43°38' W 001°49'2 4.6
2018-Jan-05 11:00N 43°37' W 001°50'6 7.6
2018-Jan-05 10:12N 43°31' W 001°53'2 8.2
2018-Jan-05 10:01N 43°29' W 001°53'4 8.3
2018-Jan-05 09:30N 43°25' W 001°54'4 8.5
2018-Jan-05 09:00N 43°21' W 001°55'  

Dump ship's entire track history